To NAV CANADA Home Page Login to a new session Search on AWWS site Disclaimer Vers la page française équivalente Tips FAQ What's new on the site To the Forecasts and Observations / NOTAM section To "File a Flight Plan" website Publications and other links Update of the User's profile FIC Telephone Numbers My Weather Data Folder Route Weather Data Regional Weather Data Local Weather Data To the Forecasts and Observations / NOTAM section
Request Generated 10/19/2018 at 15:53:21 UTC . Weather information available at that time is displayed.

METAR/TAF

THE PAS/MB    

METAR CYQD 191500Z AUTO 31015G26KT 9SM FEW024 04/M02 A2992 RMK SLP145=
METAR CYQD 191400Z AUTO 29016G22KT 9SM SCT035 04/M01 A2990 RMK SLP136=
METAR CYQD 191300Z AUTO 30011G17KT 9SM BKN035 05/M00 A2988 RMK SLP130=

TAF CYQD 191238Z 1913/2001 30015G25KT P6SM BKN030
BECMG 1917/1919 32020G30KT
RMK FCST BASED ON AUTO OBS. NXT FCST BY 191900Z=
Your time UTC time
Weather data provided by Environment Canada and NAV CANADA